sensor_id;sensor_type;location;lat;lon;timestamp;P1;durP1;ratioP1;P2;durP2;ratioP2
68886;SDS011;55925;51.764;6.402;2023-06-22T00:04:36;15.80;;;8.05;;
68886;SDS011;55925;51.764;6.402;2023-06-22T00:07:02;15.40;;;9.27;;
68886;SDS011;55925;51.764;6.402;2023-06-22T00:09:28;15.93;;;9.45;;
68886;SDS011;55925;51.764;6.402;2023-06-22T00:11:54;15.50;;;8.77;;
68886;SDS011;55925;51.764;6.402;2023-06-22T00:14:20;15.80;;;8.82;;
68886;SDS011;55925;51.764;6.402;2023-06-22T00:16:46;16.30;;;9.52;;
68886;SDS011;55925;51.764;6.402;2023-06-22T00:22:18;16.38;;;9.13;;
68886;SDS011;55925;51.764;6.402;2023-06-22T00:24:53;16.48;;;9.75;;
68886;SDS011;55925;51.764;6.402;2023-06-22T00:27:19;15.65;;;8.88;;
68886;SDS011;55925;51.764;6.402;2023-06-22T00:29:44;17.02;;;9.30;;
68886;SDS011;55925;51.764;6.402;2023-06-22T00:32:10;16.27;;;9.02;;
68886;SDS011;55925;51.764;6.402;2023-06-22T00:34:36;16.02;;;9.05;;
68886;SDS011;55925;51.764;6.402;2023-06-22T00:37:02;16.30;;;8.93;;
68886;SDS011;55925;51.764;6.402;2023-06-22T00:39:29;15.43;;;7.97;;
68886;SDS011;55925;51.764;6.402;2023-06-22T00:41:58;16.15;;;8.73;;
68886;SDS011;55925;51.764;6.402;2023-06-22T00:44:24;14.60;;;8.45;;
68886;SDS011;55925;51.764;6.402;2023-06-22T00:46:51;15.70;;;8.70;;
68886;SDS011;55925;51.764;6.402;2023-06-22T00:49:17;18.45;;;9.50;;
68886;SDS011;55925;51.764;6.402;2023-06-22T00:51:43;17.80;;;9.57;;
68886;SDS011;55925;51.764;6.402;2023-06-22T00:54:11;15.82;;;9.07;;
68886;SDS011;55925;51.764;6.402;2023-06-22T00:56:38;15.73;;;9.13;;
68886;SDS011;55925;51.764;6.402;2023-06-22T00:59:04;14.93;;;8.70;;
68886;SDS011;55925;51.764;6.402;2023-06-22T01:01:30;16.25;;;9.25;;
68886;SDS011;55925;51.764;6.402;2023-06-22T01:03:57;15.77;;;9.63;;
68886;SDS011;55925;51.764;6.402;2023-06-22T01:06:26;17.20;;;9.93;;
68886;SDS011;55925;51.764;6.402;2023-06-22T01:09:02;15.93;;;8.82;;
68886;SDS011;55925;51.764;6.402;2023-06-22T01:11:37;19.25;;;9.13;;
68886;SDS011;55925;51.764;6.402;2023-06-22T01:14:10;16.33;;;9.15;;
68886;SDS011;55925;51.764;6.402;2023-06-22T01:16:40;16.65;;;9.13;;
68886;SDS011;55925;51.764;6.402;2023-06-22T01:21:52;16.98;;;8.82;;
68886;SDS011;55925;51.764;6.402;2023-06-22T01:24:23;18.48;;;9.63;;
68886;SDS011;55925;51.764;6.402;2023-06-22T01:29:19;15.90;;;9.10;;
68886;SDS011;55925;51.764;6.402;2023-06-22T01:31:46;17.65;;;10.00;;
68886;SDS011;55925;51.764;6.402;2023-06-22T01:34:13;16.50;;;9.48;;
68886;SDS011;55925;51.764;6.402;2023-06-22T01:36:40;17.23;;;9.05;;
68886;SDS011;55925;51.764;6.402;2023-06-22T01:39:07;18.40;;;9.55;;
68886;SDS011;55925;51.764;6.402;2023-06-22T01:41:34;17.15;;;10.25;;
68886;SDS011;55925;51.764;6.402;2023-06-22T01:44:01;17.35;;;9.75;;
68886;SDS011;55925;51.764;6.402;2023-06-22T01:46:28;16.67;;;9.25;;
68886;SDS011;55925;51.764;6.402;2023-06-22T01:48:54;17.35;;;9.57;;
68886;SDS011;55925;51.764;6.402;2023-06-22T01:51:21;19.48;;;9.95;;
68886;SDS011;55925;51.764;6.402;2023-06-22T01:53:47;16.80;;;9.35;;
68886;SDS011;55925;51.764;6.402;2023-06-22T01:56:15;17.42;;;10.07;;
68886;SDS011;55925;51.764;6.402;2023-06-22T01:58:48;18.33;;;10.32;;
68886;SDS011;55925;51.764;6.402;2023-06-22T02:01:16;17.05;;;10.35;;
68886;SDS011;55925;51.764;6.402;2023-06-22T02:03:52;17.55;;;10.15;;
68886;SDS011;55925;51.764;6.402;2023-06-22T02:06:30;17.25;;;9.32;;
68886;SDS011;55925;51.764;6.402;2023-06-22T02:09:01;15.68;;;9.75;;
68886;SDS011;55925;51.764;6.402;2023-06-22T02:11:27;17.90;;;10.18;;
68886;SDS011;55925;51.764;6.402;2023-06-22T02:13:55;16.42;;;9.60;;
68886;SDS011;55925;51.764;6.402;2023-06-22T02:16:21;16.58;;;9.77;;
68886;SDS011;55925;51.764;6.402;2023-06-22T02:18:48;19.95;;;10.70;;
68886;SDS011;55925;51.764;6.402;2023-06-22T02:21:17;19.17;;;10.45;;
68886;SDS011;55925;51.764;6.402;2023-06-22T02:23:43;15.68;;;8.90;;
68886;SDS011;55925;51.764;6.402;2023-06-22T02:26:09;17.58;;;10.20;;
68886;SDS011;55925;51.764;6.402;2023-06-22T02:28:35;16.80;;;9.52;;
68886;SDS011;55925;51.764;6.402;2023-06-22T02:31:01;14.98;;;9.38;;
68886;SDS011;55925;51.764;6.402;2023-06-22T02:33:27;18.05;;;9.85;;
68886;SDS011;55925;51.764;6.402;2023-06-22T02:35:53;17.88;;;9.68;;
68886;SDS011;55925;51.764;6.402;2023-06-22T02:38:19;16.27;;;9.63;;
68886;SDS011;55925;51.764;6.402;2023-06-22T02:40:45;17.75;;;9.38;;
68886;SDS011;55925;51.764;6.402;2023-06-22T02:43:12;18.15;;;10.15;;
68886;SDS011;55925;51.764;6.402;2023-06-22T02:45:38;19.90;;;10.88;;
68886;SDS011;55925;51.764;6.402;2023-06-22T02:48:04;21.15;;;10.90;;
68886;SDS011;55925;51.764;6.402;2023-06-22T02:50:30;17.15;;;10.00;;
68886;SDS011;55925;51.764;6.402;2023-06-22T02:52:56;18.38;;;10.25;;
68886;SDS011;55925;51.764;6.402;2023-06-22T02:55:23;19.23;;;10.77;;
68886;SDS011;55925;51.764;6.402;2023-06-22T02:57:49;18.58;;;10.27;;
68886;SDS011;55925;51.764;6.402;2023-06-22T03:00:17;20.05;;;10.02;;
68886;SDS011;55925;51.764;6.402;2023-06-22T03:02:44;19.42;;;10.93;;
68886;SDS011;55925;51.764;6.402;2023-06-22T03:05:10;20.38;;;11.10;;
68886;SDS011;55925;51.764;6.402;2023-06-22T03:07:38;18.98;;;11.63;;
68886;SDS011;55925;51.764;6.402;2023-06-22T03:10:04;19.52;;;11.50;;
68886;SDS011;55925;51.764;6.402;2023-06-22T03:12:31;19.38;;;11.75;;
68886;SDS011;55925;51.764;6.402;2023-06-22T03:14:57;19.23;;;10.73;;
68886;SDS011;55925;51.764;6.402;2023-06-22T03:17:23;19.25;;;11.70;;
68886;SDS011;55925;51.764;6.402;2023-06-22T03:19:49;23.67;;;12.50;;
68886;SDS011;55925;51.764;6.402;2023-06-22T03:22:15;20.58;;;11.52;;
68886;SDS011;55925;51.764;6.402;2023-06-22T03:24:41;19.90;;;11.77;;
68886;SDS011;55925;51.764;6.402;2023-06-22T03:27:07;22.45;;;11.68;;
68886;SDS011;55925;51.764;6.402;2023-06-22T03:29:33;17.52;;;10.73;;
68886;SDS011;55925;51.764;6.402;2023-06-22T03:31:59;21.27;;;11.95;;
68886;SDS011;55925;51.764;6.402;2023-06-22T03:34:25;20.17;;;11.25;;
68886;SDS011;55925;51.764;6.402;2023-06-22T03:36:51;20.48;;;11.90;;
68886;SDS011;55925;51.764;6.402;2023-06-22T03:39:17;22.98;;;12.38;;
68886;SDS011;55925;51.764;6.402;2023-06-22T03:41:43;23.33;;;12.70;;
68886;SDS011;55925;51.764;6.402;2023-06-22T03:44:09;24.77;;;12.88;;
68886;SDS011;55925;51.764;6.402;2023-06-22T03:46:37;22.40;;;12.07;;
68886;SDS011;55925;51.764;6.402;2023-06-22T03:49:03;20.98;;;12.85;;
68886;SDS011;55925;51.764;6.402;2023-06-22T03:51:30;24.35;;;12.32;;
68886;SDS011;55925;51.764;6.402;2023-06-22T03:53:56;26.17;;;13.07;;
68886;SDS011;55925;51.764;6.402;2023-06-22T03:56:22;20.25;;;11.55;;
68886;SDS011;55925;51.764;6.402;2023-06-22T03:58:48;21.92;;;12.45;;
68886;SDS011;55925;51.764;6.402;2023-06-22T04:01:14;23.80;;;13.30;;
68886;SDS011;55925;51.764;6.402;2023-06-22T04:03:42;20.90;;;12.77;;
68886;SDS011;55925;51.764;6.402;2023-06-22T04:06:08;21.27;;;12.65;;
68886;SDS011;55925;51.764;6.402;2023-06-22T04:08:34;24.75;;;13.85;;
68886;SDS011;55925;51.764;6.402;2023-06-22T04:11:00;25.20;;;13.60;;
68886;SDS011;55925;51.764;6.402;2023-06-22T04:13:26;22.92;;;12.57;;
68886;SDS011;55925;51.764;6.402;2023-06-22T04:15:52;25.73;;;13.75;;
68886;SDS011;55925;51.764;6.402;2023-06-22T04:18:18;23.17;;;13.50;;
68886;SDS011;55925;51.764;6.402;2023-06-22T04:20:44;22.85;;;13.57;;
68886;SDS011;55925;51.764;6.402;2023-06-22T04:23:11;23.60;;;14.00;;
68886;SDS011;55925;51.764;6.402;2023-06-22T04:25:37;29.25;;;14.73;;
68886;SDS011;55925;51.764;6.402;2023-06-22T04:28:03;22.30;;;13.50;;
68886;SDS011;55925;51.764;6.402;2023-06-22T04:30:29;25.33;;;13.88;;
68886;SDS011;55925;51.764;6.402;2023-06-22T04:32:56;24.95;;;14.80;;
68886;SDS011;55925;51.764;6.402;2023-06-22T04:35:23;27.92;;;15.25;;
68886;SDS011;55925;51.764;6.402;2023-06-22T04:37:49;25.67;;;14.45;;
68886;SDS011;55925;51.764;6.402;2023-06-22T04:40:19;26.65;;;15.73;;
68886;SDS011;55925;51.764;6.402;2023-06-22T04:42:45;28.05;;;14.55;;
68886;SDS011;55925;51.764;6.402;2023-06-22T04:45:17;22.35;;;13.20;;
68886;SDS011;55925;51.764;6.402;2023-06-22T04:47:43;24.10;;;14.13;;
68886;SDS011;55925;51.764;6.402;2023-06-22T04:50:10;25.40;;;14.80;;
68886;SDS011;55925;51.764;6.402;2023-06-22T04:52:37;24.67;;;14.57;;
68886;SDS011;55925;51.764;6.402;2023-06-22T04:55:03;27.20;;;15.18;;
68886;SDS011;55925;51.764;6.402;2023-06-22T04:57:29;24.48;;;14.10;;
68886;SDS011;55925;51.764;6.402;2023-06-22T04:59:58;23.27;;;14.38;;
68886;SDS011;55925;51.764;6.402;2023-06-22T05:02:36;26.58;;;15.13;;
68886;SDS011;55925;51.764;6.402;2023-06-22T05:05:02;27.40;;;14.43;;
68886;SDS011;55925;51.764;6.402;2023-06-22T05:07:32;24.45;;;14.30;;
68886;SDS011;55925;51.764;6.402;2023-06-22T05:09:59;25.60;;;14.45;;
68886;SDS011;55925;51.764;6.402;2023-06-22T05:12:25;26.17;;;15.35;;
68886;SDS011;55925;51.764;6.402;2023-06-22T05:14:51;27.30;;;15.65;;
68886;SDS011;55925;51.764;6.402;2023-06-22T05:17:17;26.45;;;15.43;;
68886;SDS011;55925;51.764;6.402;2023-06-22T05:19:44;24.52;;;15.40;;
68886;SDS011;55925;51.764;6.402;2023-06-22T05:22:14;23.58;;;14.60;;
68886;SDS011;55925;51.764;6.402;2023-06-22T05:24:40;26.13;;;14.73;;
68886;SDS011;55925;51.764;6.402;2023-06-22T05:27:06;24.92;;;15.57;;
68886;SDS011;55925;51.764;6.402;2023-06-22T05:29:32;26.83;;;15.85;;
68886;SDS011;55925;51.764;6.402;2023-06-22T05:31:58;23.80;;;14.77;;
68886;SDS011;55925;51.764;6.402;2023-06-22T05:34:24;27.63;;;15.80;;
68886;SDS011;55925;51.764;6.402;2023-06-22T05:36:51;25.45;;;15.27;;
68886;SDS011;55925;51.764;6.402;2023-06-22T05:39:17;25.65;;;15.40;;
68886;SDS011;55925;51.764;6.402;2023-06-22T05:41:44;24.60;;;15.35;;
68886;SDS011;55925;51.764;6.402;2023-06-22T05:44:10;26.88;;;14.75;;
68886;SDS011;55925;51.764;6.402;2023-06-22T05:46:36;29.33;;;15.07;;
68886;SDS011;55925;51.764;6.402;2023-06-22T05:49:02;28.50;;;17.13;;
68886;SDS011;55925;51.764;6.402;2023-06-22T05:51:28;26.60;;;16.27;;
68886;SDS011;55925;51.764;6.402;2023-06-22T05:53:54;27.92;;;15.13;;
68886;SDS011;55925;51.764;6.402;2023-06-22T05:56:20;27.02;;;15.27;;
68886;SDS011;55925;51.764;6.402;2023-06-22T05:58:46;28.38;;;16.45;;
68886;SDS011;55925;51.764;6.402;2023-06-22T06:01:12;26.38;;;15.48;;
68886;SDS011;55925;51.764;6.402;2023-06-22T06:03:40;27.45;;;16.33;;
68886;SDS011;55925;51.764;6.402;2023-06-22T06:06:06;28.33;;;16.02;;
68886;SDS011;55925;51.764;6.402;2023-06-22T06:08:32;26.65;;;16.33;;
68886;SDS011;55925;51.764;6.402;2023-06-22T06:10:59;24.02;;;16.00;;
68886;SDS011;55925;51.764;6.402;2023-06-22T06:13:25;28.70;;;16.75;;
68886;SDS011;55925;51.764;6.402;2023-06-22T06:15:51;25.65;;;15.82;;
68886;SDS011;55925;51.764;6.402;2023-06-22T06:18:19;26.77;;;16.98;;
68886;SDS011;55925;51.764;6.402;2023-06-22T06:20:45;24.83;;;15.82;;
68886;SDS011;55925;51.764;6.402;2023-06-22T06:23:12;26.10;;;15.38;;
68886;SDS011;55925;51.764;6.402;2023-06-22T06:25:38;26.48;;;16.05;;
68886;SDS011;55925;51.764;6.402;2023-06-22T06:28:04;24.67;;;15.13;;
68886;SDS011;55925;51.764;6.402;2023-06-22T06:30:30;25.98;;;16.17;;
68886;SDS011;55925;51.764;6.402;2023-06-22T06:32:56;24.83;;;15.48;;
68886;SDS011;55925;51.764;6.402;2023-06-22T06:35:22;23.95;;;15.48;;
68886;SDS011;55925;51.764;6.402;2023-06-22T06:37:49;26.55;;;15.43;;
68886;SDS011;55925;51.764;6.402;2023-06-22T06:40:16;25.13;;;15.43;;
68886;SDS011;55925;51.764;6.402;2023-06-22T06:42:43;26.27;;;15.52;;
68886;SDS011;55925;51.764;6.402;2023-06-22T06:45:09;26.08;;;15.75;;
68886;SDS011;55925;51.764;6.402;2023-06-22T06:47:35;24.90;;;15.35;;
68886;SDS011;55925;51.764;6.402;2023-06-22T06:50:02;23.00;;;15.98;;
68886;SDS011;55925;51.764;6.402;2023-06-22T06:52:29;26.40;;;15.93;;
68886;SDS011;55925;51.764;6.402;2023-06-22T06:54:55;25.98;;;16.35;;
68886;SDS011;55925;51.764;6.402;2023-06-22T06:57:21;23.50;;;14.88;;
68886;SDS011;55925;51.764;6.402;2023-06-22T06:59:47;26.58;;;15.02;;
68886;SDS011;55925;51.764;6.402;2023-06-22T07:02:14;26.83;;;16.25;;
68886;SDS011;55925;51.764;6.402;2023-06-22T07:04:40;27.65;;;15.85;;
68886;SDS011;55925;51.764;6.402;2023-06-22T07:07:06;24.83;;;15.93;;
68886;SDS011;55925;51.764;6.402;2023-06-22T07:09:32;24.27;;;16.10;;
68886;SDS011;55925;51.764;6.402;2023-06-22T07:11:58;26.63;;;16.70;;
68886;SDS011;55925;51.764;6.402;2023-06-22T07:14:24;24.23;;;16.02;;
68886;SDS011;55925;51.764;6.402;2023-06-22T07:16:50;26.13;;;15.80;;
68886;SDS011;55925;51.764;6.402;2023-06-22T07:19:16;26.13;;;16.02;;
68886;SDS011;55925;51.764;6.402;2023-06-22T07:21:50;25.38;;;15.38;;
68886;SDS011;55925;51.764;6.402;2023-06-22T07:24:16;24.98;;;15.35;;
68886;SDS011;55925;51.764;6.402;2023-06-22T07:26:42;25.58;;;16.70;;
68886;SDS011;55925;51.764;6.402;2023-06-22T07:29:10;25.48;;;15.68;;
68886;SDS011;55925;51.764;6.402;2023-06-22T07:31:37;21.20;;;14.18;;
68886;SDS011;55925;51.764;6.402;2023-06-22T07:34:05;23.33;;;15.57;;
68886;SDS011;55925;51.764;6.402;2023-06-22T07:36:31;24.80;;;15.23;;
68886;SDS011;55925;51.764;6.402;2023-06-22T07:38:57;26.48;;;16.50;;
68886;SDS011;55925;51.764;6.402;2023-06-22T07:41:23;25.25;;;15.45;;
68886;SDS011;55925;51.764;6.402;2023-06-22T07:43:49;24.77;;;15.32;;
68886;SDS011;55925;51.764;6.402;2023-06-22T07:46:15;24.08;;;15.52;;
68886;SDS011;55925;51.764;6.402;2023-06-22T07:48:41;29.08;;;15.50;;
68886;SDS011;55925;51.764;6.402;2023-06-22T07:51:09;25.17;;;15.68;;
68886;SDS011;55925;51.764;6.402;2023-06-22T07:53:39;24.88;;;15.68;;
68886;SDS011;55925;51.764;6.402;2023-06-22T07:56:05;25.92;;;15.68;;
68886;SDS011;55925;51.764;6.402;2023-06-22T07:58:32;27.25;;;15.38;;
68886;SDS011;55925;51.764;6.402;2023-06-22T08:00:58;24.05;;;15.68;;
68886;SDS011;55925;51.764;6.402;2023-06-22T08:03:24;23.02;;;15.75;;
68886;SDS011;55925;51.764;6.402;2023-06-22T08:05:50;27.17;;;15.48;;
68886;SDS011;55925;51.764;6.402;2023-06-22T08:08:16;25.00;;;15.38;;
68886;SDS011;55925;51.764;6.402;2023-06-22T08:10:42;27.17;;;16.10;;
68886;SDS011;55925;51.764;6.402;2023-06-22T08:13:09;24.95;;;15.00;;
68886;SDS011;55925;51.764;6.402;2023-06-22T08:15:35;25.13;;;16.25;;
68886;SDS011;55925;51.764;6.402;2023-06-22T08:18:01;25.90;;;15.10;;
68886;SDS011;55925;51.764;6.402;2023-06-22T08:20:27;23.30;;;15.07;;
68886;SDS011;55925;51.764;6.402;2023-06-22T08:22:54;24.98;;;15.48;;
68886;SDS011;55925;51.764;6.402;2023-06-22T08:25:25;23.00;;;14.60;;
68886;SDS011;55925;51.764;6.402;2023-06-22T08:27:51;25.33;;;15.10;;
68886;SDS011;55925;51.764;6.402;2023-06-22T08:30:17;24.15;;;15.10;;
68886;SDS011;55925;51.764;6.402;2023-06-22T08:32:43;25.38;;;15.18;;
68886;SDS011;55925;51.764;6.402;2023-06-22T08:35:09;22.42;;;14.60;;
68886;SDS011;55925;51.764;6.402;2023-06-22T08:37:36;21.40;;;14.30;;
68886;SDS011;55925;51.764;6.402;2023-06-22T08:40:04;21.67;;;14.20;;
68886;SDS011;55925;51.764;6.402;2023-06-22T08:42:31;21.92;;;14.60;;
68886;SDS011;55925;51.764;6.402;2023-06-22T08:44:57;23.73;;;14.73;;
68886;SDS011;55925;51.764;6.402;2023-06-22T08:47:23;23.20;;;14.30;;
68886;SDS011;55925;51.764;6.402;2023-06-22T08:49:49;24.40;;;15.50;;
68886;SDS011;55925;51.764;6.402;2023-06-22T08:52:17;24.38;;;14.40;;
68886;SDS011;55925;51.764;6.402;2023-06-22T08:54:43;23.05;;;14.25;;
68886;SDS011;55925;51.764;6.402;2023-06-22T08:57:09;25.13;;;15.55;;
68886;SDS011;55925;51.764;6.402;2023-06-22T08:59:35;23.00;;;15.45;;
68886;SDS011;55925;51.764;6.402;2023-06-22T09:02:01;24.48;;;14.55;;
68886;SDS011;55925;51.764;6.402;2023-06-22T09:04:27;24.77;;;15.95;;
68886;SDS011;55925;51.764;6.402;2023-06-22T09:06:53;23.83;;;14.40;;
68886;SDS011;55925;51.764;6.402;2023-06-22T09:11:47;23.17;;;15.25;;
68886;SDS011;55925;51.764;6.402;2023-06-22T09:14:14;22.35;;;14.88;;
68886;SDS011;55925;51.764;6.402;2023-06-22T09:16:39;20.88;;;13.88;;
68886;SDS011;55925;51.764;6.402;2023-06-22T09:19:05;22.60;;;14.82;;
68886;SDS011;55925;51.764;6.402;2023-06-22T09:21:31;20.85;;;14.15;;
68886;SDS011;55925;51.764;6.402;2023-06-22T09:23:57;22.05;;;13.55;;
68886;SDS011;55925;51.764;6.402;2023-06-22T09:26:23;23.90;;;15.15;;
68886;SDS011;55925;51.764;6.402;2023-06-22T09:28:50;21.27;;;14.27;;
68886;SDS011;55925;51.764;6.402;2023-06-22T09:31:16;23.00;;;15.02;;
68886;SDS011;55925;51.764;6.402;2023-06-22T09:33:42;22.13;;;14.13;;
68886;SDS011;55925;51.764;6.402;2023-06-22T09:36:09;24.88;;;14.10;;
68886;SDS011;55925;51.764;6.402;2023-06-22T09:38:35;23.40;;;13.80;;
68886;SDS011;55925;51.764;6.402;2023-06-22T09:41:01;24.10;;;14.65;;
68886;SDS011;55925;51.764;6.402;2023-06-22T09:43:28;24.58;;;15.13;;
68886;SDS011;55925;51.764;6.402;2023-06-22T09:45:53;21.33;;;14.38;;
68886;SDS011;55925;51.764;6.402;2023-06-22T09:48:19;21.77;;;13.55;;
68886;SDS011;55925;51.764;6.402;2023-06-22T09:50:46;23.33;;;13.77;;
68886;SDS011;55925;51.764;6.402;2023-06-22T09:53:12;21.23;;;14.18;;
68886;SDS011;55925;51.764;6.402;2023-06-22T09:55:38;23.75;;;14.77;;
68886;SDS011;55925;51.764;6.402;2023-06-22T09:58:04;22.88;;;13.77;;
68886;SDS011;55925;51.764;6.402;2023-06-22T10:00:30;20.83;;;13.23;;
68886;SDS011;55925;51.764;6.402;2023-06-22T10:02:56;23.75;;;13.98;;
68886;SDS011;55925;51.764;6.402;2023-06-22T10:05:22;22.15;;;13.80;;
68886;SDS011;55925;51.764;6.402;2023-06-22T10:07:48;24.90;;;14.00;;
68886;SDS011;55925;51.764;6.402;2023-06-22T10:10:14;24.30;;;14.45;;
68886;SDS011;55925;51.764;6.402;2023-06-22T10:12:41;21.10;;;13.15;;
68886;SDS011;55925;51.764;6.402;2023-06-22T10:15:08;22.67;;;13.13;;
68886;SDS011;55925;51.764;6.402;2023-06-22T10:17:34;22.85;;;13.95;;
68886;SDS011;55925;51.764;6.402;2023-06-22T10:20:00;23.98;;;14.32;;
68886;SDS011;55925;51.764;6.402;2023-06-22T10:22:31;20.85;;;13.27;;
68886;SDS011;55925;51.764;6.402;2023-06-22T10:24:57;22.00;;;13.32;;
68886;SDS011;55925;51.764;6.402;2023-06-22T10:27:23;22.02;;;13.57;;
68886;SDS011;55925;51.764;6.402;2023-06-22T10:29:49;22.33;;;14.05;;
68886;SDS011;55925;51.764;6.402;2023-06-22T10:32:15;21.70;;;13.68;;
68886;SDS011;55925;51.764;6.402;2023-06-22T10:34:41;18.83;;;12.25;;
68886;SDS011;55925;51.764;6.402;2023-06-22T10:37:07;22.10;;;13.50;;
68886;SDS011;55925;51.764;6.402;2023-06-22T10:39:32;19.98;;;13.35;;
68886;SDS011;55925;51.764;6.402;2023-06-22T10:41:59;19.77;;;13.40;;
68886;SDS011;55925;51.764;6.402;2023-06-22T10:44:24;24.67;;;14.45;;
68886;SDS011;55925;51.764;6.402;2023-06-22T10:46:50;26.77;;;14.88;;
68886;SDS011;55925;51.764;6.402;2023-06-22T10:49:16;23.40;;;14.32;;
68886;SDS011;55925;51.764;6.402;2023-06-22T10:51:42;22.23;;;14.13;;
68886;SDS011;55925;51.764;6.402;2023-06-22T10:54:08;24.05;;;14.38;;
68886;SDS011;55925;51.764;6.402;2023-06-22T10:56:34;22.08;;;14.05;;
68886;SDS011;55925;51.764;6.402;2023-06-22T10:59:00;22.98;;;14.27;;
68886;SDS011;55925;51.764;6.402;2023-06-22T11:01:26;23.67;;;13.90;;
68886;SDS011;55925;51.764;6.402;2023-06-22T11:03:53;23.63;;;15.05;;
68886;SDS011;55925;51.764;6.402;2023-06-22T11:06:19;24.25;;;14.52;;
68886;SDS011;55925;51.764;6.402;2023-06-22T11:08:44;23.17;;;15.25;;
68886;SDS011;55925;51.764;6.402;2023-06-22T11:11:10;24.08;;;14.82;;
68886;SDS011;55925;51.764;6.402;2023-06-22T11:13:36;23.23;;;14.23;;
68886;SDS011;55925;51.764;6.402;2023-06-22T11:16:02;20.92;;;14.35;;
68886;SDS011;55925;51.764;6.402;2023-06-22T11:18:29;26.65;;;15.02;;
68886;SDS011;55925;51.764;6.402;2023-06-22T11:20:58;24.48;;;14.70;;
68886;SDS011;55925;51.764;6.402;2023-06-22T11:23:24;28.38;;;15.48;;
68886;SDS011;55925;51.764;6.402;2023-06-22T11:25:52;26.20;;;15.82;;
68886;SDS011;55925;51.764;6.402;2023-06-22T11:28:18;23.98;;;14.82;;
68886;SDS011;55925;51.764;6.402;2023-06-22T11:30:44;23.10;;;14.60;;
68886;SDS011;55925;51.764;6.402;2023-06-22T11:33:10;26.85;;;16.77;;
68886;SDS011;55925;51.764;6.402;2023-06-22T11:35:36;26.77;;;15.68;;
68886;SDS011;55925;51.764;6.402;2023-06-22T11:38:02;27.75;;;17.42;;
68886;SDS011;55925;51.764;6.402;2023-06-22T11:40:29;26.48;;;15.95;;
68886;SDS011;55925;51.764;6.402;2023-06-22T11:42:55;24.30;;;16.05;;
68886;SDS011;55925;51.764;6.402;2023-06-22T11:45:21;25.55;;;16.42;;
68886;SDS011;55925;51.764;6.402;2023-06-22T11:47:47;27.55;;;17.23;;
68886;SDS011;55925;51.764;6.402;2023-06-22T11:50:14;27.40;;;16.50;;
68886;SDS011;55925;51.764;6.402;2023-06-22T11:52:40;24.05;;;16.83;;
68886;SDS011;55925;51.764;6.402;2023-06-22T11:55:06;23.20;;;15.85;;
68886;SDS011;55925;51.764;6.402;2023-06-22T11:57:33;32.28;;;16.95;;
68886;SDS011;55925;51.764;6.402;2023-06-22T11:59:59;30.85;;;18.55;;
68886;SDS011;55925;51.764;6.402;2023-06-22T12:02:25;35.10;;;18.95;;
68886;SDS011;55925;51.764;6.402;2023-06-22T12:04:51;28.48;;;17.60;;
68886;SDS011;55925;51.764;6.402;2023-06-22T12:07:19;31.73;;;18.38;;
68886;SDS011;55925;51.764;6.402;2023-06-22T12:09:45;33.47;;;18.80;;
68886;SDS011;55925;51.764;6.402;2023-06-22T12:12:11;30.85;;;18.67;;
68886;SDS011;55925;51.764;6.402;2023-06-22T12:14:37;29.30;;;18.42;;
68886;SDS011;55925;51.764;6.402;2023-06-22T12:17:03;31.38;;;19.55;;
68886;SDS011;55925;51.764;6.402;2023-06-22T12:19:29;30.83;;;18.60;;
68886;SDS011;55925;51.764;6.402;2023-06-22T12:21:55;30.73;;;18.05;;
68886;SDS011;55925;51.764;6.402;2023-06-22T12:24:21;29.60;;;17.88;;
68886;SDS011;55925;51.764;6.402;2023-06-22T12:26:47;31.45;;;18.73;;
68886;SDS011;55925;51.764;6.402;2023-06-22T12:29:13;30.30;;;20.17;;
68886;SDS011;55925;51.764;6.402;2023-06-22T12:31:39;35.20;;;21.33;;
68886;SDS011;55925;51.764;6.402;2023-06-22T12:34:06;34.30;;;19.85;;
68886;SDS011;55925;51.764;6.402;2023-06-22T12:36:32;36.75;;;21.38;;
68886;SDS011;55925;51.764;6.402;2023-06-22T12:38:58;29.98;;;17.95;;
68886;SDS011;55925;51.764;6.402;2023-06-22T12:41:24;32.42;;;20.35;;
68886;SDS011;55925;51.764;6.402;2023-06-22T12:43:50;32.40;;;20.60;;
68886;SDS011;55925;51.764;6.402;2023-06-22T12:46:16;33.55;;;20.48;;
68886;SDS011;55925;51.764;6.402;2023-06-22T12:48:42;31.75;;;20.25;;
68886;SDS011;55925;51.764;6.402;2023-06-22T12:51:09;34.00;;;19.83;;
68886;SDS011;55925;51.764;6.402;2023-06-22T12:53:35;34.42;;;20.95;;
68886;SDS011;55925;51.764;6.402;2023-06-22T12:56:01;32.92;;;20.80;;
68886;SDS011;55925;51.764;6.402;2023-06-22T12:58:27;27.42;;;18.65;;
68886;SDS011;55925;51.764;6.402;2023-06-22T13:00:53;30.65;;;18.65;;
68886;SDS011;55925;51.764;6.402;2023-06-22T13:03:19;28.60;;;18.45;;
68886;SDS011;55925;51.764;6.402;2023-06-22T13:05:45;27.92;;;16.98;;
68886;SDS011;55925;51.764;6.402;2023-06-22T13:08:11;27.13;;;17.85;;
68886;SDS011;55925;51.764;6.402;2023-06-22T13:10:38;26.40;;;17.80;;
68886;SDS011;55925;51.764;6.402;2023-06-22T13:13:04;29.15;;;18.42;;
68886;SDS011;55925;51.764;6.402;2023-06-22T13:15:30;25.98;;;16.70;;
68886;SDS011;55925;51.764;6.402;2023-06-22T13:17:56;25.15;;;16.77;;
68886;SDS011;55925;51.764;6.402;2023-06-22T13:20:22;26.52;;;17.00;;
68886;SDS011;55925;51.764;6.402;2023-06-22T13:22:48;28.73;;;18.02;;
68886;SDS011;55925;51.764;6.402;2023-06-22T13:25:14;25.23;;;17.08;;
68886;SDS011;55925;51.764;6.402;2023-06-22T13:27:44;27.10;;;17.55;;
68886;SDS011;55925;51.764;6.402;2023-06-22T13:30:10;23.88;;;16.55;;
68886;SDS011;55925;51.764;6.402;2023-06-22T13:32:36;22.88;;;16.02;;
68886;SDS011;55925;51.764;6.402;2023-06-22T13:35:02;24.05;;;15.70;;
68886;SDS011;55925;51.764;6.402;2023-06-22T13:37:28;21.02;;;14.52;;
68886;SDS011;55925;51.764;6.402;2023-06-22T13:39:54;28.52;;;16.05;;
68886;SDS011;55925;51.764;6.402;2023-06-22T13:42:21;25.30;;;16.77;;
68886;SDS011;55925;51.764;6.402;2023-06-22T13:44:47;27.38;;;16.92;;
68886;SDS011;55925;51.764;6.402;2023-06-22T13:47:13;26.95;;;16.15;;
68886;SDS011;55925;51.764;6.402;2023-06-22T13:49:39;27.27;;;17.15;;
68886;SDS011;55925;51.764;6.402;2023-06-22T13:52:05;23.70;;;16.42;;
68886;SDS011;55925;51.764;6.402;2023-06-22T13:54:35;24.33;;;15.23;;
68886;SDS011;55925;51.764;6.402;2023-06-22T13:57:01;28.00;;;17.65;;
68886;SDS011;55925;51.764;6.402;2023-06-22T13:59:27;28.70;;;18.90;;
68886;SDS011;55925;51.764;6.402;2023-06-22T14:01:53;26.90;;;17.92;;
68886;SDS011;55925;51.764;6.402;2023-06-22T14:04:19;24.95;;;17.35;;
68886;SDS011;55925;51.764;6.402;2023-06-22T14:06:45;26.83;;;17.42;;
68886;SDS011;55925;51.764;6.402;2023-06-22T14:09:11;23.90;;;16.38;;
68886;SDS011;55925;51.764;6.402;2023-06-22T14:11:37;25.20;;;17.17;;
68886;SDS011;55925;51.764;6.402;2023-06-22T14:14:03;25.33;;;16.85;;
68886;SDS011;55925;51.764;6.402;2023-06-22T14:16:29;25.95;;;17.75;;
68886;SDS011;55925;51.764;6.402;2023-06-22T14:18:55;29.75;;;19.00;;
68886;SDS011;55925;51.764;6.402;2023-06-22T14:21:21;28.85;;;18.42;;
68886;SDS011;55925;51.764;6.402;2023-06-22T14:23:47;26.65;;;17.60;;
68886;SDS011;55925;51.764;6.402;2023-06-22T14:26:16;28.80;;;17.55;;
68886;SDS011;55925;51.764;6.402;2023-06-22T14:28:45;25.23;;;17.08;;
68886;SDS011;55925;51.764;6.402;2023-06-22T14:31:18;26.27;;;17.40;;
68886;SDS011;55925;51.764;6.402;2023-06-22T14:33:45;25.23;;;17.50;;